Time;durP1;ratioP1;P1;durP2;ratioP2;P2;SDS_P1;SDS_P2;PMS_P1;PMS_P2;Temp;Humidity;BMP_temperature;BMP_pressure;BME280_temperature;BME280_humidity;BME280_pressure;Samples;Min_cycle;Max_cycle;Signal;HPM_P1;HPM_P2
2021/04/19 00:00:49;;;;;;;27.63;5.90;;;;;;;19.16;55.60;100920.94;5070285;28;20135;-70
2021/04/19 00:03:16;;;;;;;19.77;5.05;;;;;;;19.21;55.61;100919.06;5070255;28;20037;-69
2021/04/19 00:05:43;;;;;;;20.33;5.13;;;;;;;19.20;55.50;100908.38;5073167;28;20119;-70
2021/04/19 00:08:12;;;;;;;25.42;6.40;;;;;;;19.20;55.55;100905.69;5068933;28;20052;-69
2021/04/19 00:10:39;;;;;;;29.20;5.63;;;;;;;19.19;55.60;100893.22;5070347;28;20056;-69
2021/04/19 00:13:06;;;;;;;21.88;5.72;;;;;;;19.17;55.61;100893.25;5071494;28;20116;-69
2021/04/19 00:15:34;;;;;;;21.95;6.03;;;;;;;19.18;55.70;100888.78;5070077;28;20611;-69
2021/04/19 00:18:01;;;;;;;24.23;5.13;;;;;;;19.18;55.56;100875.38;5073252;28;20127;-70
2021/04/19 00:20:28;;;;;;;20.20;4.78;;;;;;;19.18;55.44;100886.97;5073430;28;20071;-69
2021/04/19 00:22:56;;;;;;;18.70;4.47;;;;;;;19.25;55.28;100895.78;5069717;28;20143;-71
2021/04/19 00:25:22;;;;;;;21.65;4.32;;;;;;;19.28;55.14;100903.78;5070455;28;20064;-69
2021/04/19 00:27:49;;;;;;;19.60;5.95;;;;;;;19.33;55.36;100905.47;5070267;28;20106;-69
2021/04/19 00:30:18;;;;;;;24.73;5.20;;;;;;;19.37;55.38;100903.59;5074406;28;20071;-69
2021/04/19 00:32:46;;;;;;;21.63;5.82;;;;;;;19.40;55.37;100900.88;5070846;28;20046;-70
2021/04/19 00:35:15;;;;;;;28.73;4.40;;;;;;;19.32;55.29;100889.41;5070244;28;20119;-70
2021/04/19 00:37:42;;;;;;;21.05;5.22;;;;;;;19.19;55.48;100883.41;5068553;28;20122;-69
2021/04/19 00:40:12;;;;;;;23.83;5.05;;;;;;;19.21;55.40;100870.00;5071172;28;20131;-69
2021/04/19 00:42:40;;;;;;;22.60;5.72;;;;;;;19.19;55.46;100866.47;5069784;28;20047;-69
2021/04/19 00:45:09;;;;;;;25.17;5.13;;;;;;;19.18;55.31;100873.59;5069863;28;20678;-69
2021/04/19 00:47:36;;;;;;;24.25;4.68;;;;;;;19.16;55.33;100877.25;5069335;28;20068;-70
2021/04/19 00:50:06;;;;;;;17.60;5.25;;;;;;;19.16;55.22;100871.88;5070963;28;20559;-69
2021/04/19 00:52:34;;;;;;;24.05;5.35;;;;;;;19.14;55.25;100874.59;5071601;28;20671;-70
2021/04/19 00:55:01;;;;;;;18.88;4.28;;;;;;;19.07;55.50;100876.47;5069678;28;20115;-70
2021/04/19 00:57:30;;;;;;;22.60;4.38;;;;;;;19.03;55.67;100893.47;5069507;28;20072;-69
2021/04/19 00:59:57;;;;;;;19.92;4.10;;;;;;;18.97;55.85;100890.06;5069352;28;20093;-70
2021/04/19 01:02:24;;;;;;;17.52;3.92;;;;;;;18.91;55.90;100893.69;5060336;28;20057;-70
2021/04/19 01:04:52;;;;;;;17.17;3.83;;;;;;;18.99;55.85;100904.28;5065809;28;20036;-69
2021/04/19 01:07:20;;;;;;;13.90;4.50;;;;;;;18.99;55.85;100931.91;5068313;28;20540;-70
2021/04/19 01:09:47;;;;;;;15.25;3.35;;;;;;;18.98;55.82;100935.50;5069522;28;20127;-69
2021/04/19 01:12:15;;;;;;;17.13;3.30;;;;;;;19.05;55.40;100945.19;5064077;28;20041;-70
2021/04/19 01:14:42;;;;;;;22.10;5.60;;;;;;;19.11;55.10;100971.84;5069355;28;20060;-69
2021/04/19 01:17:09;;;;;;;14.38;3.42;;;;;;;19.14;55.18;100972.72;5057061;28;20071;-69
2021/04/19 01:19:37;;;;;;;10.30;3.40;;;;;;;19.18;55.01;100969.06;5063122;28;20056;-69
2021/04/19 01:22:05;;;;;;;20.25;3.60;;;;;;;19.19;54.95;100978.88;5075227;28;20029;-69
2021/04/19 01:24:32;;;;;;;18.48;4.30;;;;;;;19.16;54.89;100982.50;5069129;28;20124;-70
2021/04/19 01:26:59;;;;;;;19.15;3.92;;;;;;;19.13;54.90;100984.31;5068195;28;20532;-69
2021/04/19 01:29:26;;;;;;;16.60;4.97;;;;;;;19.13;55.05;100992.34;5069398;28;20066;-70
2021/04/19 01:31:53;;;;;;;16.35;3.42;;;;;;;19.07;54.98;100977.28;5073935;28;20127;-69
2021/04/19 01:34:21;;;;;;;17.65;4.32;;;;;;;19.06;55.01;100971.06;5064182;28;20036;-69
2021/04/19 01:36:48;;;;;;;17.08;3.40;;;;;;;19.10;54.75;100969.19;5069418;28;20119;-69
2021/04/19 01:39:17;;;;;;;17.77;3.40;;;;;;;19.16;54.56;100961.09;5068892;28;20037;-69
2021/04/19 01:41:45;;;;;;;12.80;3.40;;;;;;;19.22;54.26;100941.38;5067890;28;20051;-70
2021/04/19 01:44:12;;;;;;;19.77;3.60;;;;;;;19.25;54.01;100950.22;5073888;28;20119;-69
2021/04/19 01:46:40;;;;;;;17.67;4.10;;;;;;;19.30;54.11;100948.34;5067352;28;20040;-70
2021/04/19 01:49:13;;;;;;;15.00;3.35;;;;;;;19.35;53.89;100946.47;5069221;28;20052;-69
2021/04/19 01:51:41;;;;;;;21.33;4.00;;;;;;;19.35;53.99;100942.91;5069001;28;20120;-70
2021/04/19 01:54:08;;;;;;;17.10;3.88;;;;;;;19.29;54.17;100953.75;5069035;28;20470;-70
2021/04/19 01:56:37;;;;;;;16.42;3.33;;;;;;;19.23;54.52;100961.88;5071616;28;20032;-70
2021/04/19 01:59:06;;;;;;;14.65;3.30;;;;;;;19.24;54.40;100960.94;5068856;28;20425;-70
2021/04/19 02:01:35;;;;;;;19.58;3.83;;;;;;;19.30;54.29;100959.03;5068511;28;20471;-69
2021/04/19 02:04:12;;;;;;;13.65;3.67;;;;;;;19.35;54.10;100926.84;5068265;28;20052;-69
2021/04/19 02:06:48;;;;;;;15.20;3.00;;;;;;;19.33;54.16;100928.66;5068596;28;20094;-70
2021/04/19 02:09:23;;;;;;;18.00;3.03;;;;;;;19.32;54.00;100914.41;5056159;28;20186;-69
2021/04/19 02:12:03;;;;;;;15.15;3.58;;;;;;;19.35;53.87;100924.19;5068746;28;20539;-69
2021/04/19 02:14:37;;;;;;;13.52;3.28;;;;;;;19.37;53.54;100959.81;5048978;28;20397;-70
2021/04/19 02:17:14;;;;;;;13.77;2.88;;;;;;;19.38;53.76;100937.50;5068655;28;20056;-70
2021/04/19 02:19:44;;;;;;;18.05;3.25;;;;;;;19.40;53.80;100924.97;5064542;28;20123;-70
2021/04/19 02:22:16;;;;;;;13.75;3.67;;;;;;;19.39;54.10;100915.16;5048280;28;20045;-69
2021/04/19 02:24:48;;;;;;;13.82;2.67;;;;;;;19.33;54.17;100915.28;5051514;28;20147;-69
2021/04/19 02:27:22;;;;;;;15.75;2.63;;;;;;;19.30;54.07;100918.00;5048415;28;20045;-70
2021/04/19 02:29:50;;;;;;;12.20;2.45;;;;;;;19.31;54.01;100914.41;5048221;28;20064;-69
2021/04/19 02:32:22;;;;;;;18.10;3.80;;;;;;;19.33;53.98;100910.81;5048429;28;20041;-69
2021/04/19 02:34:53;;;;;;;16.92;3.55;;;;;;;19.31;53.91;100914.41;5064635;28;20565;-69
2021/04/19 02:37:22;;;;;;;16.80;3.53;;;;;;;19.21;54.33;100923.53;5049198;28;20451;-70
2021/04/19 02:39:51;;;;;;;16.95;2.90;;;;;;;19.24;54.38;100921.66;5048104;28;20116;-69
2021/04/19 02:42:19;;;;;;;11.75;2.45;;;;;;;19.22;54.48;100911.91;5052301;28;20041;-70
2021/04/19 02:44:48;;;;;;;15.93;2.53;;;;;;;19.22;54.45;100925.31;5054333;28;20127;-69
2021/04/19 02:47:16;;;;;;;12.40;3.20;;;;;;;19.21;54.65;100934.25;5017934;28;20128;-69
2021/04/19 02:49:44;;;;;;;12.43;3.10;;;;;;;19.17;54.84;100940.53;5055277;28;20037;-69
2021/04/19 02:52:13;;;;;;;17.33;2.70;;;;;;;19.25;54.72;100933.25;5052167;28;20033;-69
2021/04/19 02:54:42;;;;;;;12.15;2.63;;;;;;;19.20;54.91;100933.34;5052174;28;20037;-69
2021/04/19 02:57:20;;;;;;;17.77;3.40;;;;;;;19.19;55.04;100930.69;5051956;28;20037;-69
2021/04/19 02:59:51;;;;;;;13.85;3.42;;;;;;;19.19;55.03;100925.34;5052262;28;20041;-70
2021/04/19 03:02:21;;;;;;;14.75;3.10;;;;;;;19.22;54.91;100947.59;5051341;28;20032;-69
2021/04/19 03:04:49;;;;;;;16.10;3.83;;;;;;;19.21;54.87;100956.53;5051581;28;20033;-69
2021/04/19 03:07:19;;;;;;;12.35;2.65;;;;;;;19.26;54.75;100957.34;5051999;28;20446;-69
2021/04/19 03:09:52;;;;;;;11.73;2.22;;;;;;;19.30;54.66;100950.13;5051887;28;20124;-69
2021/04/19 03:12:24;;;;;;;13.55;3.17;;;;;;;19.30;54.65;100944.78;5051688;28;20037;-69
2021/04/19 03:14:58;;;;;;;11.35;2.15;;;;;;;19.31;54.55;100938.50;5041100;28;20037;-69
2021/04/19 03:17:25;;;;;;;20.23;2.30;;;;;;;19.29;54.61;100946.59;5040177;28;20136;-70
2021/04/19 03:20:00;;;;;;;14.80;2.60;;;;;;;19.28;54.78;100938.59;5041466;28;20032;-69
2021/04/19 03:22:29;;;;;;;10.82;2.58;;;;;;;19.20;54.88;100925.31;5071527;28;20037;-69
2021/04/19 03:24:58;;;;;;;15.98;3.08;;;;;;;19.10;55.39;100911.19;5079863;28;20396;-71
2021/04/19 03:27:28;;;;;;;17.67;2.92;;;;;;;19.15;55.39;100907.59;5072107;28;20128;-69
2021/04/19 03:29:57;;;;;;;10.18;2.83;;;;;;;19.19;55.45;100901.25;5075970;28;20061;-70
2021/04/19 03:32:31;;;;;;;13.70;3.00;;;;;;;19.22;55.58;100911.91;5076142;28;20063;-69
2021/04/19 03:35:00;;;;;;;11.55;3.03;;;;;;;19.10;56.16;100935.28;5070889;28;20124;-70
2021/04/19 03:37:30;;;;;;;14.48;2.58;;;;;;;19.05;56.34;100937.16;5070548;28;20519;-70
2021/04/19 03:40:02;;;;;;;15.43;2.95;;;;;;;19.03;56.44;100938.97;5070911;28;20032;-70
2021/04/19 03:42:31;;;;;;;11.50;3.45;;;;;;;19.02;56.39;100961.31;5071241;28;20086;-69
2021/04/19 03:45:02;;;;;;;10.93;2.90;;;;;;;19.07;56.55;100978.16;5070756;28;20575;-70
2021/04/19 03:47:31;;;;;;;13.32;2.33;;;;;;;19.15;56.48;101002.16;5057881;28;20040;-70
2021/04/19 03:50:03;;;;;;;11.45;3.33;;;;;;;19.20;56.45;101010.09;5070861;28;20127;-70
2021/04/19 03:52:34;;;;;;;15.13;2.60;;;;;;;19.22;56.23;101003.81;5071209;28;20036;-70
2021/04/19 03:55:05;;;;;;;15.82;3.20;;;;;;;19.24;55.85;100985.91;5071188;28;20064;-69
2021/04/19 03:57:34;;;;;;;13.65;3.13;;;;;;;19.27;55.67;100975.16;5071124;28;20471;-69
2021/04/19 04:00:07;;;;;;;18.55;3.10;;;;;;;19.31;55.43;100973.31;5068879;28;20123;-69
2021/04/19 04:02:37;;;;;;;9.40;2.25;;;;;;;19.31;55.58;100965.28;5085921;28;20076;-70
2021/04/19 04:05:05;;;;;;;14.05;2.65;;;;;;;19.31;55.45;100968.84;5071099;28;20429;-69
2021/04/19 04:07:34;;;;;;;20.00;2.50;;;;;;;19.37;55.10;100965.19;5083762;28;20124;-69
2021/04/19 04:10:02;;;;;;;19.52;2.92;;;;;;;19.40;54.92;100967.81;5070866;28;20038;-69
2021/04/19 04:12:29;;;;;;;18.23;2.63;;;;;;;19.44;54.71;100982.91;5070991;28;20090;-70
2021/04/19 04:14:58;;;;;;;8.85;3.20;;;;;;;19.38;55.22;100991.03;5070970;28;20071;-69
2021/04/19 04:17:26;;;;;;;16.58;3.70;;;;;;;19.33;55.76;100991.13;5069354;28;20553;-70
2021/04/19 04:19:54;;;;;;;19.92;4.18;;;;;;;19.42;55.69;100995.47;5064220;28;20460;-70
2021/04/19 04:22:21;;;;;;;21.02;4.75;;;;;;;19.46;55.67;100997.19;5069843;28;20150;-69
2021/04/19 04:24:49;;;;;;;12.88;3.95;;;;;;;19.35;56.38;100997.34;5060263;28;20451;-69
2021/04/19 04:27:16;;;;;;;14.20;3.05;;;;;;;19.29;56.58;100980.50;5070477;28;20074;-69
2021/04/19 04:29:43;;;;;;;20.35;2.83;;;;;;;19.20;57.01;100978.84;5064985;28;20740;-69
2021/04/19 04:32:12;;;;;;;14.25;4.30;;;;;;;19.29;56.82;100970.69;5070384;28;20064;-69
2021/04/19 04:34:40;;;;;;;21.27;4.78;;;;;;;19.42;56.45;100968.69;5070385;28;20196;-70
2021/04/19 04:37:08;;;;;;;26.55;5.70;;;;;;;19.50;56.07;100956.06;5068952;28;20047;-69
2021/04/19 04:39:35;;;;;;;16.73;3.85;;;;;;;19.54;55.91;100952.44;5066412;28;20560;-70
2021/04/19 04:42:04;;;;;;;17.55;4.40;;;;;;;19.57;56.10;100964.84;5068173;28;20124;-69
2021/04/19 04:44:36;;;;;;;34.10;5.13;;;;;;;19.63;56.27;100972.78;5070087;28;20039;-69
2021/04/19 04:47:13;;;;;;;32.55;5.43;;;;;;;19.69;56.40;100981.59;5070280;28;20048;-70
2021/04/19 04:49:47;;;;;;;31.27;5.18;;;;;;;19.77;56.73;101003.78;5069778;28;20071;-70
2021/04/19 04:52:16;;;;;;;22.65;5.28;;;;;;;19.83;57.06;101019.75;5069960;28;20047;-69
2021/04/19 04:54:48;;;;;;;22.08;4.78;;;;;;;19.89;57.57;101026.78;5069689;28;20046;-69
2021/04/19 04:57:20;;;;;;;22.10;6.15;;;;;;;19.95;57.66;101033.84;5067118;28;20427;-69
2021/04/19 04:59:50;;;;;;;22.17;5.90;;;;;;;19.94;58.28;101030.28;5062635;28;20080;-70
2021/04/19 05:02:20;;;;;;;28.73;7.45;;;;;;;19.95;58.76;101017.75;5056372;28;20048;-70
2021/04/19 05:04:50;;;;;;;25.80;5.53;;;;;;;19.99;58.88;101001.59;5068090;28;20052;-69
2021/04/19 05:07:17;;;;;;;18.73;4.57;;;;;;;19.98;59.04;101002.50;5069313;28;20512;-69
2021/04/19 05:09:46;;;;;;;22.88;4.97;;;;;;;19.95;59.30;101007.94;5069304;28;20045;-70
2021/04/19 05:12:14;;;;;;;19.23;4.10;;;;;;;19.98;59.08;101006.97;5068293;28;20110;-69
2021/04/19 05:14:41;;;;;;;23.45;5.25;;;;;;;20.03;59.28;101010.44;5065565;28;20596;-69
2021/04/19 05:17:09;;;;;;;18.85;4.50;;;;;;;20.04;59.39;101033.66;5069394;28;20124;-69
2021/04/19 05:19:36;;;;;;;26.55;5.40;;;;;;;20.10;59.57;101039.78;5069136;28;20083;-69
2021/04/19 05:22:04;;;;;;;24.48;5.32;;;;;;;20.26;59.26;101035.91;5067156;28;20120;-69
2021/04/19 05:24:31;;;;;;;21.80;4.72;;;;;;;20.35;59.08;101020.59;5069172;28;20496;-69
2021/04/19 05:26:59;;;;;;;24.38;5.28;;;;;;;20.41;58.86;101042.81;5063653;28;20037;-69
2021/04/19 05:29:27;;;;;;;20.88;4.88;;;;;;;20.59;58.39;101047.78;5065853;28;20536;-69
2021/04/19 05:31:55;;;;;;;24.88;5.15;;;;;;;20.82;58.09;101070.53;5062058;28;20043;-69
2021/04/19 05:34:22;;;;;;;20.05;4.93;;;;;;;21.00;57.55;101078.22;5041583;28;20128;-69
2021/04/19 05:36:50;;;;;;;18.48;4.30;;;;;;;21.14;57.03;101083.25;5057174;28;20703;-69
2021/04/19 05:39:19;;;;;;;24.80;5.40;;;;;;;21.25;57.01;101057.09;5067490;28;20087;-69
2021/04/19 05:41:46;;;;;;;17.38;3.90;;;;;;;21.37;56.26;101065.72;5052242;28;20085;-69
2021/04/19 05:44:13;;;;;;;18.20;4.43;;;;;;;21.47;56.08;101075.31;5068169;28;20128;-69
2021/04/19 05:46:41;;;;;;;26.67;5.72;;;;;;;21.56;55.80;101071.53;5067301;28;20093;-69
2021/04/19 05:49:08;;;;;;;26.10;4.93;;;;;;;21.57;55.63;101064.34;5063598;28;20515;-69
2021/04/19 05:51:43;;;;;;;15.82;4.20;;;;;;;21.69;55.47;101045.22;5072142;28;20110;-70
2021/04/19 05:54:11;;;;;;;19.30;5.55;;;;;;;21.74;55.51;101057.63;5061847;28;20033;-70
2021/04/19 05:56:57;;;;;;;18.58;5.32;;;;;;;21.74;55.16;101059.44;5065120;28;20115;-70
2021/04/19 05:59:35;;;;;;;23.00;5.30;;;;;;;21.77;55.25;101054.88;5067832;28;20032;-69
2021/04/19 06:02:04;;;;;;;21.33;5.25;;;;;;;21.79;54.88;101036.03;5073429;28;20028;-69
2021/04/19 06:04:41;;;;;;;16.83;4.88;;;;;;;21.79;54.92;101027.97;5064888;28;20036;-69
2021/04/19 06:07:13;;;;;;;22.77;4.53;;;;;;;21.71;54.93;101028.16;5060709;28;20040;-69
2021/04/19 06:09:46;;;;;;;24.30;4.40;;;;;;;21.74;54.99;101016.44;5064027;28;20041;-69
2021/04/19 06:12:20;;;;;;;14.20;3.80;;;;;;;21.76;55.06;101031.59;5056097;28;20086;-69
2021/04/19 06:14:51;;;;;;;22.00;5.68;;;;;;;21.79;55.18;101031.50;5068826;28;20118;-70
2021/04/19 06:17:21;;;;;;;20.70;4.53;;;;;;;21.79;55.02;101033.34;5071965;28;20048;-70
2021/04/19 06:19:49;;;;;;;24.85;4.80;;;;;;;21.78;54.67;101039.63;5069564;28;20048;-69
2021/04/19 06:22:20;;;;;;;14.57;4.20;;;;;;;21.73;54.85;101034.34;5067682;28;20048;-70
2021/04/19 06:24:48;;;;;;;16.52;3.45;;;;;;;21.69;55.06;101021.03;5063673;28;20048;-70
2021/04/19 06:27:20;;;;;;;18.02;3.92;;;;;;;21.75;54.89;101021.78;5068083;28;20056;-70
2021/04/19 06:29:49;;;;;;;18.02;3.40;;;;;;;21.92;54.79;101001.63;5069140;28;20044;-69
2021/04/19 06:32:20;;;;;;;16.55;4.63;;;;;;;22.02;54.54;100969.09;5080429;28;20040;-70
2021/04/19 06:34:47;;;;;;;20.42;4.20;;;;;;;22.06;54.11;100965.38;5061866;28;20373;-69
2021/04/19 06:37:14;;;;;;;15.52;3.45;;;;;;;22.13;53.35;100964.28;5062613;28;20120;-70
2021/04/19 06:39:41;;;;;;;18.23;3.42;;;;;;;22.24;53.03;100966.69;5073302;28;20048;-70
2021/04/19 06:42:09;;;;;;;16.85;3.50;;;;;;;22.39;52.78;100982.34;5067781;28;20120;-70
2021/04/19 06:44:38;;;;;;;13.52;3.35;;;;;;;22.47;52.21;100996.47;5055148;28;20571;-70
2021/04/19 06:47:06;;;;;;;16.15;3.42;;;;;;;22.58;52.33;101021.25;5068745;28;20068;-69
2021/04/19 06:49:35;;;;;;;11.60;3.05;;;;;;;22.67;51.89;101047.91;5067234;28;20044;-70
2021/04/19 06:52:03;;;;;;;16.75;3.67;;;;;;;22.61;52.15;101052.59;5053738;28;20449;-69
2021/04/19 06:54:30;;;;;;;13.73;3.50;;;;;;;22.64;52.31;101065.97;5068419;28;20115;-70
2021/04/19 06:57:00;;;;;;;12.77;3.20;;;;;;;22.77;52.39;101064.72;5066183;28;20115;-71
2021/04/19 06:59:29;;;;;;;13.32;2.83;;;;;;;22.91;51.66;101069.66;5056213;28;20124;-72
2021/04/19 07:01:58;;;;;;;14.52;3.25;;;;;;;23.00;50.97;101081.03;5068589;28;20067;-70
2021/04/19 07:04:27;;;;;;;11.48;2.58;;;;;;;23.12;50.76;101076.19;5067868;28;20433;-70
2021/04/19 07:06:55;;;;;;;10.05;2.30;;;;;;;23.14;50.12;101060.88;5067661;28;20044;-70
2021/04/19 07:09:26;;;;;;;11.27;2.35;;;;;;;22.98;49.27;101061.34;5067403;28;20071;-70
2021/04/19 07:11:55;;;;;;;12.18;2.55;;;;;;;22.83;49.38;101059.13;5068373;28;20051;-70
2021/04/19 07:14:23;;;;;;;11.90;2.85;;;;;;;22.75;49.63;101061.16;5049782;28;20162;-69
2021/04/19 07:16:51;;;;;;;13.10;2.28;;;;;;;22.73;49.27;101038.78;5050487;28;20106;-70
2021/04/19 07:19:21;;;;;;;12.02;2.03;;;;;;;22.66;49.12;101012.94;5067667;28;20048;-71
2021/04/19 07:21:48;;;;;;;17.25;3.35;;;;;;;22.62;48.95;100996.03;5031490;28;20045;-70
2021/04/19 07:24:15;;;;;;;11.32;2.78;;;;;;;22.45;48.63;101011.75;5017037;28;20034;-69
2021/04/19 07:26:45;;;;;;;10.98;3.03;;;;;;;22.31;48.95;101053.47;5041280;28;20132;-70
2021/04/19 07:29:12;;;;;;;18.50;3.92;;;;;;;22.26;49.16;101084.06;5050125;28;20048;-70
2021/04/19 07:31:49;;;;;;;13.32;2.53;;;;;;;22.38;49.40;101093.63;5051029;28;20116;-70
2021/04/19 07:34:20;;;;;;;19.85;5.85;;;;;;;22.54;49.08;101092.25;5049423;28;20049;-70
2021/04/19 07:36:52;;;;;;;19.77;5.22;;;;;;;22.66;48.99;101056.00;5051665;28;20069;-70
2021/04/19 07:39:20;;;;;;;16.80;3.63;;;;;;;22.75;48.75;101026.19;5049979;28;20094;-70
2021/04/19 07:41:50;;;;;;;12.40;3.03;;;;;;;22.82;48.29;101003.53;5049830;28;20420;-70
2021/04/19 07:44:34;;;;;;;14.77;3.40;;;;;;;22.79;48.16;100982.06;5051041;28;20120;-70
2021/04/19 07:47:27;;;;;;;16.83;3.13;;;;;;;22.64;48.70;100934.94;5037477;28;20124;-69
2021/04/19 07:50:12;;;;;;;11.40;3.13;;;;;;;22.53;49.16;100942.47;5050448;28;20370;-70
2021/04/19 07:52:53;;;;;;;16.90;2.85;;;;;;;22.71;49.36;100951.75;5050192;28;20051;-70
2021/04/19 07:55:23;;;;;;;11.20;2.58;;;;;;;22.79;48.98;100975.78;5048543;28;20035;-70
2021/04/19 07:57:50;;;;;;;16.38;3.95;;;;;;;22.74;49.09;101000.19;5051181;28;20112;-70
2021/04/19 08:00:31;;;;;;;13.98;2.35;;;;;;;22.95;49.13;101002.22;5049540;28;20065;-70
2021/04/19 08:03:03;;;;;;;20.08;4.18;;;;;;;23.10;50.05;100997.28;5050379;28;20037;-70
2021/04/19 08:05:34;;;;;;;19.88;6.35;;;;;;;22.98;51.00;101020.94;5050657;28;20049;-71
2021/04/19 08:08:01;;;;;;;25.88;7.28;;;;;;;22.95;51.52;101041.72;5042763;28;20039;-70
2021/04/19 08:10:29;;;;;;;14.80;4.75;;;;;;;22.94;52.05;101019.28;5049367;28;20136;-70
2021/04/19 08:13:06;;;;;;;28.55;5.53;;;;;;;22.94;52.58;100992.38;5050519;28;20068;-69
2021/04/19 08:15:36;;;;;;;16.58;4.10;;;;;;;22.94;52.73;100992.38;5050023;28;20129;-70
2021/04/19 08:18:06;;;;;;;11.30;2.85;;;;;;;22.80;53.47;100997.28;5050507;28;20112;-70
2021/04/19 08:20:35;;;;;;;15.80;4.90;;;;;;;22.90;53.51;100990.72;5050182;28;20047;-70
2021/04/19 08:23:11;;;;;;;15.70;3.63;;;;;;;23.02;53.88;100994.81;5049880;28;20060;-70
2021/04/19 08:25:43;;;;;;;19.85;4.63;;;;;;;22.95;53.97;100986.06;5050530;28;20041;-70
2021/04/19 08:28:14;;;;;;;20.98;4.03;;;;;;;23.18;53.79;100984.41;5050228;28;20068;-70
2021/04/19 08:30:42;;;;;;;16.48;4.80;;;;;;;23.33;53.40;100956.97;5050480;28;20052;-70
2021/04/19 08:33:10;;;;;;;18.98;3.70;;;;;;;23.72;52.57;100966.41;5050115;28;20071;-71
2021/04/19 08:35:40;;;;;;;15.35;4.40;;;;;;;23.89;51.98;100979.31;5032183;28;20045;-70
2021/04/19 08:38:08;;;;;;;16.92;4.60;;;;;;;23.95;51.86;100978.19;5039106;28;20121;-70
2021/04/19 08:40:37;;;;;;;18.10;3.42;;;;;;;24.20;51.59;100968.31;5043157;28;20071;-70
2021/04/19 08:43:07;;;;;;;17.40;5.07;;;;;;;24.17;51.37;100977.34;5049762;28;20582;-72
2021/04/19 08:45:39;;;;;;;15.63;3.05;;;;;;;24.20;51.27;100965.59;5041260;28;20045;-70
2021/04/19 08:48:09;;;;;;;14.98;3.38;;;;;;;24.18;50.97;100943.16;5047338;28;20576;-70
2021/04/19 08:50:36;;;;;;;13.10;3.17;;;;;;;24.07;50.91;100938.16;5048907;28;20145;-70
2021/04/19 08:53:08;;;;;;;21.52;4.38;;;;;;;24.19;50.56;100934.16;5040171;28;20124;-70
2021/04/19 08:55:35;;;;;;;11.93;2.92;;;;;;;24.34;50.14;100960.56;5042520;28;20135;-71
2021/04/19 08:58:09;;;;;;;14.07;3.50;;;;;;;24.55;49.37;100981.31;5040022;28;20051;-72
2021/04/19 09:00:40;;;;;;;13.90;3.95;;;;;;;24.66;48.77;100998.94;5048253;28;20044;-71
2021/04/19 09:03:10;;;;;;;16.27;4.32;;;;;;;24.47;48.70;100998.78;5048795;28;20511;-71
2021/04/19 09:05:38;;;;;;;12.82;4.00;;;;;;;24.43;48.79;101005.19;5032264;28;20041;-71
2021/04/19 09:08:13;;;;;;;17.73;3.97;;;;;;;24.43;48.69;101019.59;5036228;28;20060;-71
2021/04/19 09:10:50;;;;;;;;;;;;;;;24.31;48.84;101003.84;5036671;28;20071;-71
2021/04/19 09:13:28;;;;;;;14.48;2.20;;;;;;;24.15;49.30;101002.63;5044872;28;20439;-71
2021/04/19 09:15:56;;;;;;;13.32;3.17;;;;;;;24.30;48.67;101002.09;5042408;28;20140;-71
2021/04/19 09:18:27;;;;;;;12.77;3.70;;;;;;;24.44;47.73;101001.56;5027135;28;20056;-70
2021/04/19 09:20:57;;;;;;;15.93;2.63;;;;;;;24.58;46.94;101004.63;5040440;28;20045;-69
2021/04/19 09:23:31;;;;;;;10.70;2.63;;;;;;;24.68;46.52;100999.78;5042993;28;20041;-70
2021/04/19 09:25:58;;;;;;;;;;;;;;;24.81;46.36;101006.47;5039486;28;20074;-72
2021/04/19 09:28:54;;;;;;;10.50;2.92;;;;;;;24.78;46.24;101004.75;5046696;28;19999;-70
2021/04/19 09:32:06;;;;;;;10.80;2.47;;;;;;;24.70;46.45;101005.97;5033925;28;20056;-69
2021/04/19 09:34:40;;;;;;;13.23;2.53;;;;;;;24.53;47.16;101031.81;4962285;28;20069;-70
2021/04/19 09:37:08;;;;;;;10.90;2.60;;;;;;;24.46;47.38;101040.19;5025970;28;20044;-69
2021/04/19 09:39:57;;;;;;;14.20;3.00;;;;;;;24.55;47.10;101027.22;5046350;28;20127;-68
2021/04/19 09:43:07;;;;;;;8.82;2.55;;;;;;;24.62;47.09;100999.03;5037811;28;20037;-69
2021/04/19 09:45:57;;;;;;;15.02;3.75;;;;;;;24.45;47.06;100998.81;5029209;28;20179;-68
2021/04/19 09:48:46;;;;;;;16.48;4.32;;;;;;;24.22;47.24;101018.56;5025082;28;20037;-68
2021/04/19 09:51:17;;;;;;;13.65;2.90;;;;;;;24.11;47.81;101011.75;5013170;28;20391;-69
2021/04/19 09:53:53;;;;;;;11.25;2.70;;;;;;;24.33;48.17;100991.19;5043618;28;20052;-69
2021/04/19 09:56:30;;;;;;;12.50;3.00;;;;;;;24.53;47.89;100988.63;5042013;28;20073;-69
2021/04/19 09:58:58;;;;;;;17.92;4.85;;;;;;;24.62;48.31;100952.25;5038410;28;20061;-68
2021/04/19 10:01:26;;;;;;;13.10;2.78;;;;;;;24.75;48.56;100936.44;5037896;28;20496;-68
2021/04/19 10:03:55;;;;;;;10.15;3.08;;;;;;;25.14;48.42;100953.75;5039492;28;20045;-69
2021/04/19 10:06:36;;;;;;;11.93;2.72;;;;;;;25.10;48.16;100933.22;5047347;28;20039;-69
2021/04/19 10:09:08;;;;;;;14.65;2.95;;;;;;;25.04;48.69;100940.72;5043988;28;20033;-70
2021/04/19 10:11:44;;;;;;;12.95;2.72;;;;;;;24.97;48.41;100972.50;5045333;28;20039;-71
2021/04/19 10:14:14;;;;;;;15.07;3.03;;;;;;;25.19;48.12;100978.81;5042120;28;20041;-71
2021/04/19 10:16:45;;;;;;;18.42;2.88;;;;;;;25.13;48.24;100994.38;5042652;28;20060;-70
2021/04/19 10:19:13;;;;;;;13.43;2.53;;;;;;;24.92;48.62;100997.00;5042826;28;20124;-70
2021/04/19 10:21:41;;;;;;;14.63;4.05;;;;;;;24.68;48.75;100992.53;5067414;28;20669;-71
2021/04/19 10:24:17;;;;;;;11.98;2.38;;;;;;;24.67;49.21;100980.00;5066089;28;20056;-71
2021/04/19 10:26:45;;;;;;;12.13;2.92;;;;;;;24.57;49.48;100997.47;5052613;28;20037;-72
2021/04/19 10:29:17;;;;;;;12.15;3.17;;;;;;;24.45;49.62;101028.50;5067145;28;20215;-71
2021/04/19 10:31:49;;;;;;;13.57;2.97;;;;;;;23.93;50.70;101012.44;5057231;28;20074;-69
2021/04/19 10:34:17;;;;;;;14.90;2.67;;;;;;;23.45;52.00;101013.13;5058325;28;20056;-70
2021/04/19 10:36:46;;;;;;;15.18;2.60;;;;;;;23.31;52.36;100991.16;5064316;28;20037;-71
2021/04/19 10:39:16;;;;;;;10.30;2.67;;;;;;;23.36;52.62;100949.69;5066269;28;20056;-69
2021/04/19 10:41:46;;;;;;;12.07;3.33;;;;;;;23.58;52.94;100959.72;5067136;28;20056;-69
2021/04/19 10:44:15;;;;;;;12.38;3.72;;;;;;;23.99;52.21;100950.16;5063371;28;20048;-69
2021/04/19 10:46:44;;;;;;;11.60;3.80;;;;;;;24.28;51.42;100979.69;5065048;28;20468;-70
2021/04/19 10:49:23;;;;;;;13.02;2.75;;;;;;;24.62;51.12;101046.75;5067515;28;20732;-70
2021/04/19 10:51:54;;;;;;;16.77;3.38;;;;;;;24.60;50.74;101040.56;5065968;28;20124;-69
2021/04/19 10:54:28;;;;;;;15.70;3.65;;;;;;;24.19;51.09;100994.41;5062786;28;20124;-69
2021/04/19 10:56:57;;;;;;;17.85;3.53;;;;;;;23.82;52.16;101020.91;5065859;28;20049;-69
2021/04/19 10:59:25;;;;;;;15.13;3.30;;;;;;;24.01;52.00;101007.66;5071529;28;20115;-71
2021/04/19 11:02:00;;;;;;;13.20;2.85;;;;;;;24.69;51.11;100969.97;5068396;28;20955;-71
2021/04/19 11:04:28;;;;;;;13.27;2.78;;;;;;;24.62;50.62;101004.44;5065335;28;20060;-71
2021/04/19 11:06:56;;;;;;;14.07;2.97;;;;;;;24.43;50.89;100999.81;5071401;28;20131;-70
2021/04/19 11:09:27;;;;;;;11.68;2.58;;;;;;;24.53;50.74;100982.34;5069186;28;20041;-70
2021/04/19 11:11:56;;;;;;;11.73;2.92;;;;;;;24.66;50.28;100955.75;5070791;28;20041;-71
2021/04/19 11:14:25;;;;;;;13.95;2.65;;;;;;;24.47;50.68;100980.75;5069495;28;20043;-71
2021/04/19 11:16:57;;;;;;;8.93;2.42;;;;;;;24.61;49.89;101021.56;5062088;28;20448;-71
2021/04/19 11:19:35;;;;;;;15.07;3.15;;;;;;;24.38;49.95;101023.41;5068743;28;20036;-71
2021/04/19 11:22:24;;;;;;;15.05;3.10;;;;;;;23.93;50.54;101032.19;5047447;28;20115;-72
2021/04/19 11:24:52;;;;;;;14.60;2.80;;;;;;;23.72;50.95;101036.50;5041233;28;20103;-72
2021/04/19 11:27:27;;;;;;;9.80;2.60;;;;;;;23.51;51.52;101004.88;5027476;28;20095;-71
2021/04/19 11:29:54;;;;;;;7.63;2.55;;;;;;;23.62;51.50;100986.56;5048038;28;20044;-70
2021/04/19 11:32:31;;;;;;;11.27;2.80;;;;;;;23.90;51.18;101040.38;5047250;28;20037;-71